Time;durP1;ratioP1;P1;durP2;ratioP2;P2;SDS_P1;SDS_P2;PMS_P1;PMS_P2;Temp;Humidity;BMP_temperature;BMP_pressure;BME280_temperature;BME280_humidity;BME280_pressure;Samples;Min_cycle;Max_cycle;Signal;HPM_P1;HPM_P2
2022/08/04 00:02:20;;;;;;;9.93;4.70;;;;;;;20.92;100.00;101431.13;7380073;19;20010;-75
2022/08/04 00:04:55;;;;;;;8.27;3.92;;;;;;;20.90;100.00;101431.16;7378865;19;20014;-75
2022/08/04 00:07:34;;;;;;;12.55;4.38;;;;;;;20.86;100.00;101429.47;7372920;19;20317;-74
2022/08/04 00:10:19;;;;;;;10.98;4.07;;;;;;;20.84;100.00;101431.28;7375733;19;20010;-71
2022/08/04 00:12:52;;;;;;;11.75;4.60;;;;;;;20.82;100.00;101425.13;7378107;19;20059;-71
2022/08/04 00:15:26;;;;;;;10.65;4.43;;;;;;;20.77;100.00;101411.91;7372256;19;20637;-72
2022/08/04 00:18:02;;;;;;;10.13;4.50;;;;;;;20.79;100.00;101420.75;7377144;19;20010;-71
2022/08/04 00:20:37;;;;;;;9.70;3.90;;;;;;;20.77;100.00;101414.56;7376313;19;20358;-72
2022/08/04 00:23:08;;;;;;;9.68;4.82;;;;;;;20.76;100.00;101414.59;7372834;19;20010;-72
2022/08/04 00:25:43;;;;;;;9.85;4.72;;;;;;;20.72;100.00;101415.56;7373977;19;20011;-71
2022/08/04 00:28:14;;;;;;;7.43;4.40;;;;;;;20.70;100.00;101412.94;7363140;19;20027;-71
2022/08/04 00:30:44;;;;;;;6.95;4.10;;;;;;;20.68;100.00;101411.22;7374591;19;20320;-73
2022/08/04 00:33:22;;;;;;;9.27;5.05;;;;;;;20.68;100.00;101411.22;7372325;19;20017;-70
2022/08/04 00:35:55;;;;;;;13.88;5.47;;;;;;;20.65;100.00;101411.25;7373344;19;20010;-72
2022/08/04 00:38:27;;;;;;;9.73;4.65;;;;;;;20.63;100.00;101413.97;7375516;19;20028;-71
2022/08/04 00:41:09;;;;;;;11.73;4.97;;;;;;;20.59;100.00;101412.25;7369050;19;20086;-71
2022/08/04 00:43:48;;;;;;;11.30;5.28;;;;;;;20.54;100.00;101404.34;7371760;19;20026;-71
2022/08/04 00:46:39;;;;;;;9.60;5.60;;;;;;;20.51;100.00;101407.06;7375693;19;20237;-71
2022/08/04 00:49:35;;;;;;;9.75;4.18;;;;;;;20.48;100.00;101403.59;7377628;19;20014;-72
2022/08/04 00:52:21;;;;;;;15.90;5.00;;;;;;;20.45;100.00;101409.84;7377591;19;20023;-73
2022/08/04 00:55:16;;;;;;;13.75;4.70;;;;;;;20.43;100.00;101417.00;7374044;19;20020;-73
2022/08/04 00:58:00;;;;;;;10.60;4.50;;;;;;;20.39;100.00;101407.28;7371901;19;20006;-71
2022/08/04 01:00:42;;;;;;;8.82;4.88;;;;;;;20.36;100.00;101393.13;7376356;19;20007;-73
2022/08/04 01:03:20;;;;;;;10.50;4.70;;;;;;;20.36;100.00;101399.31;7375054;19;20102;-71
2022/08/04 01:06:07;;;;;;;10.55;4.05;;;;;;;20.33;100.00;101399.38;7374409;19;20038;-72
2022/08/04 01:08:56;;;;;;;9.35;4.57;;;;;;;20.33;100.00;101391.41;7373668;19;20047;-72
2022/08/04 01:11:40;;;;;;;12.63;5.18;;;;;;;20.31;100.00;101392.31;7373828;19;20621;-75
2022/08/04 01:14:54;;;;;;;9.45;4.72;;;;;;;20.27;100.00;101396.81;7368132;19;20050;-74
2022/08/04 01:17:28;;;;;;;10.32;5.38;;;;;;;20.29;100.00;101399.47;7370866;19;20010;-73
2022/08/04 01:20:05;;;;;;;12.50;4.40;;;;;;;20.25;100.00;101394.19;7378040;19;20034;-72
2022/08/04 01:23:14;;;;;;;9.43;4.60;;;;;;;20.25;100.00;101406.63;7375724;19;20034;-72
2022/08/04 01:26:03;;;;;;;11.00;4.72;;;;;;;20.23;100.00;101403.13;7373086;19;20015;-72
2022/08/04 01:29:08;;;;;;;10.98;5.20;;;;;;;20.22;100.00;101401.34;7373654;19;20006;-73
2022/08/04 01:31:49;;;;;;;10.50;4.93;;;;;;;20.21;100.00;101389.81;7374320;19;20022;-70
2022/08/04 01:34:23;;;;;;;11.63;5.03;;;;;;;20.21;100.00;101383.63;7374659;19;20048;-72
2022/08/04 01:37:01;;;;;;;13.50;5.07;;;;;;;20.20;100.00;101382.75;7374075;19;20014;-72
2022/08/04 01:39:42;;;;;;;10.60;4.88;;;;;;;20.20;100.00;101380.06;7376225;19;20010;-71
2022/08/04 01:42:13;;;;;;;11.38;5.13;;;;;;;20.22;100.00;101383.59;7374846;19;20041;-72
2022/08/04 01:45:05;;;;;;;10.25;5.03;;;;;;;20.17;100.00;101382.78;7377380;19;20018;-72
2022/08/04 01:47:37;;;;;;;10.63;4.78;;;;;;;20.15;100.00;101373.06;7369877;19;20014;-71
2022/08/04 01:50:09;;;;;;;10.30;5.00;;;;;;;20.15;100.00;101373.06;7371990;19;20010;-71
2022/08/04 01:52:42;;;;;;;11.80;5.03;;;;;;;20.17;100.00;101376.59;7368276;19;20420;-72
2022/08/04 01:55:19;;;;;;;10.20;5.05;;;;;;;20.14;100.00;101371.31;7370703;19;20010;-73
2022/08/04 01:57:53;;;;;;;8.80;4.50;;;;;;;20.10;100.00;101370.50;7373679;19;20014;-72
2022/08/04 02:00:29;;;;;;;9.35;4.88;;;;;;;20.09;100.00;101370.53;7375299;19;20014;-72
2022/08/04 02:03:00;;;;;;;10.02;5.35;;;;;;;20.07;100.00;101369.66;7372331;19;20033;-72
2022/08/04 02:05:30;;;;;;;11.13;4.78;;;;;;;20.03;100.00;101370.63;7370422;19;20019;-72
2022/08/04 02:08:31;;;;;;;11.50;5.03;;;;;;;20.02;100.00;101368.88;7368648;19;20841;-72
2022/08/04 02:11:13;;;;;;;12.35;5.57;;;;;;;20.02;100.00;101374.19;7373664;19;20037;-71
2022/08/04 02:13:56;;;;;;;10.30;4.90;;;;;;;20.00;100.00;101371.56;7372087;19;20032;-70
2022/08/04 02:16:34;;;;;;;10.05;4.63;;;;;;;19.99;100.00;101368.91;7371983;19;20042;-70
2022/08/04 02:19:19;;;;;;;13.35;4.93;;;;;;;19.97;100.00;101368.06;7370277;19;20801;-71
2022/08/04 02:21:53;;;;;;;12.27;5.05;;;;;;;19.95;100.00;101360.09;7371290;19;20083;-73
2022/08/04 02:24:29;;;;;;;10.85;5.57;;;;;;;19.95;100.00;101362.78;7371180;19;20022;-72
2022/08/04 02:27:00;;;;;;;10.90;5.20;;;;;;;19.93;100.00;101369.91;7371998;19;20011;-72
2022/08/04 02:29:38;;;;;;;8.93;4.63;;;;;;;19.89;100.00;101361.09;7372339;19;20048;-74
2022/08/04 02:32:18;;;;;;;14.07;5.78;;;;;;;19.89;100.00;101361.09;7370696;19;20374;-71
2022/08/04 02:34:56;;;;;;;12.48;4.93;;;;;;;19.88;100.00;101359.34;7370945;19;20019;-71
2022/08/04 02:37:28;;;;;;;14.05;6.40;;;;;;;19.88;100.00;101358.44;7366589;19;20014;-71
2022/08/04 02:40:01;;;;;;;10.63;5.30;;;;;;;19.86;100.00;101355.81;7371048;19;20052;-72
2022/08/04 02:42:35;;;;;;;13.75;6.13;;;;;;;19.86;100.00;101354.94;7369449;19;20060;-71
2022/08/04 02:45:08;;;;;;;10.77;5.03;;;;;;;19.84;100.00;101357.63;7372200;19;20007;-71
2022/08/04 02:47:41;;;;;;;15.43;5.75;;;;;;;19.80;100.00;101355.03;7374583;19;20022;-72
2022/08/04 02:50:35;;;;;;;12.27;5.83;;;;;;;19.79;100.00;101354.16;7382443;19;20103;-72
2022/08/04 02:53:06;;;;;;;13.10;6.07;;;;;;;19.75;100.00;101362.25;7374797;19;20267;-73
2022/08/04 02:55:40;;;;;;;13.88;6.38;;;;;;;19.75;100.00;101360.47;7376940;19;20034;-71
2022/08/04 02:58:22;;;;;;;11.10;5.68;;;;;;;19.73;100.00;101361.41;7380668;19;20022;-72
2022/08/04 03:00:56;;;;;;;9.95;5.03;;;;;;;19.71;100.00;101358.75;7384285;19;20019;-72
2022/08/04 03:03:36;;;;;;;14.73;6.90;;;;;;;19.70;100.00;101351.69;7380325;19;20047;-72
2022/08/04 03:06:30;;;;;;;13.95;6.00;;;;;;;19.68;100.00;101355.28;7381603;19;20048;-72
2022/08/04 03:09:26;;;;;;;14.48;5.82;;;;;;;19.66;100.00;101357.06;7379195;19;20014;-72
2022/08/04 03:12:29;;;;;;;12.32;5.30;;;;;;;19.64;100.00;101353.56;7377270;19;20483;-72
2022/08/04 03:15:34;;;;;;;11.93;5.75;;;;;;;19.61;100.00;101358.94;7377716;19;20033;-71
2022/08/04 03:18:20;;;;;;;;;;;;;;;19.59;100.00;101353.63;7377027;19;20018;-72
2022/08/04 03:21:24;;;;;;;17.90;7.70;;;;;;;19.55;100.00;101343.94;7378412;19;20296;-74
2022/08/04 03:24:20;;;;;;;14.13;6.22;;;;;;;19.53;100.00;101345.75;7380507;19;20113;-75
2022/08/04 03:27:23;;;;;;;12.48;5.95;;;;;;;19.51;100.00;101347.53;7378359;19;20044;-73
2022/08/04 03:30:07;;;;;;;11.48;5.65;;;;;;;19.48;100.00;101332.47;7374701;19;20110;-75
2022/08/04 03:33:15;;;;;;;12.70;5.47;;;;;;;19.47;100.00;101336.03;7378278;19;20078;-75
2022/08/04 03:36:21;;;;;;;12.63;6.00;;;;;;;19.44;100.00;101340.53;7376215;19;20394;-75
2022/08/04 03:39:39;;;;;;;9.05;4.97;;;;;;;19.42;100.00;101337.91;7377123;19;20011;-74
2022/08/04 03:42:35;;;;;;;13.68;7.28;;;;;;;19.38;100.00;101335.31;7377320;19;20010;-74
2022/08/04 03:45:32;;;;;;;24.50;10.65;;;;;;;19.34;100.00;101342.44;7376554;19;20034;-75
2022/08/04 03:48:40;;;;;;;16.38;7.80;;;;;;;19.34;100.00;101330.94;7374289;19;20506;-75
2022/08/04 03:54:44;;;;;;;10.85;5.72;;;;;;;19.31;100.00;101333.63;7373436;19;20557;-75
2022/08/04 03:57:49;;;;;;;11.95;6.03;;;;;;;19.29;100.00;101336.31;7377535;19;20015;-75
2022/08/04 04:00:20;;;;;;;13.07;5.85;;;;;;;19.30;100.00;101334.53;7375951;19;20015;-75
2022/08/04 04:03:26;;;;;;;10.85;5.40;;;;;;;19.26;100.00;101326.59;7375542;19;20470;-75
2022/08/04 04:06:32;;;;;;;10.60;5.10;;;;;;;19.25;100.00;101330.16;7374446;19;20020;-76
2022/08/04 04:09:41;;;;;;;12.30;5.95;;;;;;;19.24;100.00;101322.22;7373652;19;20606;-74
2022/08/04 04:13:03;;;;;;;10.60;5.72;;;;;;;19.20;100.00;101329.34;7376028;19;20013;-72
2022/08/04 04:15:49;;;;;;;;;;;;;;;19.19;100.00;101330.25;7375662;19;20006;-71
2022/08/04 04:18:45;;;;;;;12.77;6.22;;;;;;;19.19;100.00;101330.25;7376963;19;19928;-72
2022/08/04 04:21:31;;;;;;;15.57;6.63;;;;;;;19.19;100.00;101330.25;7371718;19;20006;-71
2022/08/04 04:24:28;;;;;;;10.90;5.25;;;;;;;19.19;100.00;101330.25;7374931;19;20021;-73
2022/08/04 04:27:19;;;;;;;12.98;5.88;;;;;;;19.22;100.00;101332.00;7376893;19;20016;-72
2022/08/04 04:30:13;;;;;;;11.77;5.72;;;;;;;19.23;100.00;101337.28;7374152;19;20006;-72
2022/08/04 04:33:09;;;;;;;8.60;5.25;;;;;;;19.24;100.00;101339.03;7377379;19;20027;-72
2022/08/04 04:35:53;;;;;;;14.13;5.68;;;;;;;19.26;100.00;101337.25;7375270;19;20011;-72
2022/08/04 04:38:35;;;;;;;12.10;5.15;;;;;;;19.28;100.00;101346.06;7370461;19;20356;-72
2022/08/04 04:41:16;;;;;;;12.40;5.95;;;;;;;19.30;100.00;101345.19;7372038;19;20018;-74
2022/08/04 04:44:27;;;;;;;10.77;5.07;;;;;;;19.33;100.00;101332.72;7373462;19;20014;-73
2022/08/04 04:47:08;;;;;;;8.65;4.75;;;;;;;19.37;100.00;101344.19;7373713;19;20121;-72
2022/08/04 04:49:50;;;;;;;11.32;4.95;;;;;;;19.38;100.00;101336.19;7376096;19;20025;-71
2022/08/04 04:52:29;;;;;;;9.88;3.72;;;;;;;19.43;100.00;101344.09;7370277;19;20006;-71
2022/08/04 04:55:06;;;;;;;9.32;4.35;;;;;;;19.47;100.00;101343.16;7372396;19;20588;-72
2022/08/04 04:57:39;;;;;;;13.23;4.60;;;;;;;19.52;100.00;101344.00;7369966;19;20018;-72
2022/08/04 05:00:35;;;;;;;11.77;4.35;;;;;;;19.56;100.00;101343.03;7375344;19;20029;-70
2022/08/04 05:03:28;;;;;;;10.93;4.10;;;;;;;19.60;100.00;101347.41;7372663;19;20044;-72
2022/08/04 05:06:13;;;;;;;8.82;3.30;;;;;;;19.61;100.00;101343.84;7373808;19;20011;-73
2022/08/04 05:09:07;;;;;;;12.77;3.95;;;;;;;19.64;100.00;101356.22;7377739;19;20025;-72
2022/08/04 05:11:55;;;;;;;9.85;3.67;;;;;;;19.66;100.00;101355.28;7372519;19;20018;-73
2022/08/04 05:14:30;;;;;;;7.40;3.40;;;;;;;19.69;100.00;101357.91;7373482;19;20010;-72
2022/08/04 05:17:20;;;;;;;12.85;4.13;;;;;;;19.71;100.00;101348.13;7366476;19;20107;-71
2022/08/04 05:20:00;;;;;;;12.45;3.83;;;;;;;19.71;100.00;101356.09;7374034;19;20089;-72
2022/08/04 05:22:34;;;;;;;11.60;3.25;;;;;;;19.73;100.00;101354.28;7372435;19;20070;-73
2022/08/04 05:25:08;;;;;;;10.55;3.83;;;;;;;19.75;100.00;101363.13;7372556;19;20018;-75
2022/08/04 05:27:43;;;;;;;9.70;3.10;;;;;;;19.78;100.00;101364.84;7373264;19;20569;-76
2022/08/04 05:30:14;;;;;;;12.55;4.15;;;;;;;19.75;100.00;101363.13;7369855;19;20011;-75
2022/08/04 05:32:57;;;;;;;9.95;3.65;;;;;;;19.77;100.00;101371.94;7373032;19;20439;-76
2022/08/04 05:35:35;;;;;;;10.65;3.65;;;;;;;19.79;100.00;101379.91;7372502;19;20745;-76
2022/08/04 05:38:29;;;;;;;8.45;3.58;;;;;;;19.80;100.00;101374.56;7369672;19;20013;-76
2022/08/04 05:41:00;;;;;;;13.13;4.15;;;;;;;19.80;100.00;101377.22;7372690;19;20010;-74
2022/08/04 05:43:30;;;;;;;7.43;3.65;;;;;;;19.84;100.00;101368.28;7371720;19;20015;-75
2022/08/04 05:46:01;;;;;;;12.75;3.60;;;;;;;19.82;100.00;101370.06;7372335;19;20015;-74
2022/08/04 05:48:34;;;;;;;6.60;3.33;;;;;;;19.88;100.00;101374.44;7373388;19;20044;-75
2022/08/04 05:51:06;;;;;;;7.68;2.97;;;;;;;19.86;100.00;101371.78;7366861;19;20014;-75
2022/08/04 05:53:36;;;;;;;8.13;3.47;;;;;;;19.91;100.00;101363.72;7370425;19;20085;-75
2022/08/04 05:56:08;;;;;;;8.85;3.55;;;;;;;19.93;100.00;101361.91;7375179;19;20016;-75
2022/08/04 05:58:40;;;;;;;13.32;4.00;;;;;;;19.93;100.00;101362.78;7372482;19;20070;-76
2022/08/04 06:01:12;;;;;;;8.85;3.30;;;;;;;19.96;100.00;101372.50;7372797;19;20006;-76
2022/08/04 06:03:46;;;;;;;8.90;3.70;;;;;;;20.03;100.00;101366.19;7373330;19;20002;-76
2022/08/04 06:06:19;;;;;;;12.13;4.93;;;;;;;20.05;100.00;101366.16;7369430;19;20019;-76
2022/08/04 06:08:49;;;;;;;10.23;3.25;;;;;;;20.08;100.00;101374.09;7369883;19;20015;-76
2022/08/04 06:11:23;;;;;;;10.32;3.75;;;;;;;20.09;100.00;101375.84;7373713;19;20044;-75
2022/08/04 06:13:58;;;;;;;13.45;4.07;;;;;;;20.14;100.00;101371.31;7373422;19;20046;-74
2022/08/04 06:16:38;;;;;;;12.07;3.65;;;;;;;20.18;100.00;101367.69;7377875;19;20042;-76
2022/08/04 06:19:16;;;;;;;11.95;3.70;;;;;;;20.30;100.00;101372.81;7375269;19;20011;-74
2022/08/04 06:22:08;;;;;;;11.93;3.60;;;;;;;20.86;100.00;101368.16;7375441;19;20576;-74
2022/08/04 06:24:41;;;;;;;11.97;4.07;;;;;;;21.02;100.00;101369.59;7383410;19;20017;-74
2022/08/04 06:27:13;;;;;;;8.00;3.38;;;;;;;21.27;100.00;101371.75;7376768;19;20335;-74
2022/08/04 06:29:46;;;;;;;7.90;3.33;;;;;;;21.16;100.00;101375.50;7377593;19;20006;-74
2022/08/04 06:32:35;;;;;;;10.63;3.20;;;;;;;21.29;100.00;101373.47;7379153;19;20070;-75
2022/08/04 06:35:17;;;;;;;12.00;3.85;;;;;;;21.57;100.00;101373.72;7380374;19;20336;-75
2022/08/04 06:37:48;;;;;;;11.02;3.80;;;;;;;21.69;100.00;101373.44;7381879;19;20514;-74
2022/08/04 06:40:23;;;;;;;10.57;3.85;;;;;;;22.05;100.00;101376.97;7381885;19;20043;-75
2022/08/04 06:43:02;;;;;;;8.85;3.60;;;;;;;22.36;100.00;101377.06;7378657;19;20035;-76
2022/08/04 06:45:37;;;;;;;8.65;3.45;;;;;;;22.49;100.00;101378.47;7381568;19;20049;-76
2022/08/04 06:48:10;;;;;;;8.93;3.33;;;;;;;22.24;100.00;101387.19;7381814;19;20014;-76
2022/08/04 06:50:46;;;;;;;8.40;4.18;;;;;;;22.47;100.00;101388.34;7376768;19;20002;-76
2022/08/04 06:53:36;;;;;;;9.82;3.53;;;;;;;22.29;100.00;101388.81;7377031;19;20011;-75
2022/08/04 06:56:07;;;;;;;8.05;3.50;;;;;;;22.07;100.00;101383.16;7377877;19;20018;-76
2022/08/04 06:58:38;;;;;;;9.55;3.47;;;;;;;22.43;100.00;101388.47;7378326;19;20047;-76
2022/08/04 07:01:12;;;;;;;9.00;3.90;;;;;;;22.34;100.00;101394.94;7376553;19;20041;-76
2022/08/04 07:03:44;;;;;;;8.10;3.15;;;;;;;22.46;100.00;101394.59;7379059;19;19999;-75
2022/08/04 07:06:24;;;;;;;8.93;3.90;;;;;;;22.52;100.00;101394.44;7377221;19;20387;-75
2022/08/04 07:08:55;;;;;;;9.07;3.63;;;;;;;22.89;100.00;101389.84;7371762;19;20626;-76
2022/08/04 07:11:29;;;;;;;8.15;3.75;;;;;;;22.99;100.00;101389.53;7373172;19;20495;-75
2022/08/04 07:14:17;;;;;;;10.38;3.80;;;;;;;22.77;100.00;101388.41;7376132;19;20102;-74
2022/08/04 07:16:53;;;;;;;8.15;3.40;;;;;;;22.91;100.00;101399.59;7368908;19;20088;-74
2022/08/04 07:19:33;;;;;;;8.02;3.70;;;;;;;23.03;100.00;101406.38;7375214;19;20431;-74
2022/08/04 07:22:12;;;;;;;8.25;3.50;;;;;;;23.00;100.00;101411.81;7375822;19;20601;-74
2022/08/04 07:24:56;;;;;;;11.10;3.60;;;;;;;22.96;100.00;101413.69;7374603;19;20011;-74
2022/08/04 07:27:30;;;;;;;10.73;3.58;;;;;;;23.31;100.00;101422.50;7367789;19;20006;-74
2022/08/04 07:30:20;;;;;;;9.20;3.83;;;;;;;23.25;100.00;101425.34;7374182;19;20485;-74
2022/08/04 07:32:59;;;;;;;10.07;3.88;;;;;;;23.58;100.00;101421.69;7376006;19;20015;-74
2022/08/04 07:35:34;;;;;;;8.25;3.97;;;;;;;23.83;100.00;101419.09;7370247;19;20027;-74
2022/08/04 07:38:30;;;;;;;6.88;3.25;;;;;;;24.08;97.99;101427.16;7378061;19;20133;-74
2022/08/04 07:41:04;;;;;;;8.63;3.22;;;;;;;23.87;98.24;101428.78;7376186;19;20015;-74
2022/08/04 07:43:55;;;;;;;6.85;2.83;;;;;;;23.89;96.03;101431.41;7374863;19;20038;-76
2022/08/04 07:46:28;;;;;;;9.10;3.88;;;;;;;24.40;95.10;101429.66;7376530;19;20044;-75
2022/08/04 07:49:03;;;;;;;10.75;3.53;;;;;;;24.25;92.20;101435.53;7376667;19;20021;-75
2022/08/04 07:51:38;;;;;;;8.25;3.08;;;;;;;24.41;93.55;101433.22;7374944;19;20006;-74
2022/08/04 07:54:17;;;;;;;9.90;3.50;;;;;;;24.33;92.55;101444.22;7371387;19;20018;-74
2022/08/04 07:56:50;;;;;;;8.80;3.13;;;;;;;24.62;89.56;101445.88;7375328;19;20018;-75
2022/08/04 07:59:24;;;;;;;6.00;3.10;;;;;;;24.24;87.06;101449.84;7370843;19;20007;-73
2022/08/04 08:01:55;;;;;;;5.00;2.72;;;;;;;24.56;87.68;101446.09;7392420;19;20017;-78
2022/08/04 08:04:26;;;;;;;7.63;2.88;;;;;;;24.50;86.15;101450.81;7395094;19;20622;-76
2022/08/04 08:06:56;;;;;;;10.20;3.47;;;;;;;24.53;86.72;101439.97;7386964;19;20022;-77
2022/08/04 08:09:35;;;;;;;9.00;3.28;;;;;;;24.80;84.65;101438.13;7387361;19;20015;-77
2022/08/04 08:12:10;;;;;;;6.25;3.00;;;;;;;24.84;82.39;101442.44;7378093;19;20129;-74
2022/08/04 08:15:03;;;;;;;8.65;3.05;;;;;;;24.68;82.47;101442.13;7374131;19;20006;-73
2022/08/04 08:17:33;;;;;;;5.38;3.03;;;;;;;24.68;84.28;101434.06;7370181;19;20010;-72
2022/08/04 08:20:23;;;;;;;8.18;3.53;;;;;;;24.93;82.36;101444.78;7375441;19;20022;-71
2022/08/04 08:23:00;;;;;;;4.82;2.95;;;;;;;25.00;80.68;101452.56;7370235;19;20055;-73
2022/08/04 08:25:35;;;;;;;8.02;3.50;;;;;;;25.19;80.75;101441.13;7373336;19;20629;-73
2022/08/04 08:28:10;;;;;;;13.02;3.72;;;;;;;25.47;77.63;101444.50;7377429;19;20027;-74
2022/08/04 08:30:41;;;;;;;8.40;3.47;;;;;;;25.75;77.92;101436.28;7375755;19;20015;-74
2022/08/04 08:33:14;;;;;;;6.65;3.22;;;;;;;25.52;76.65;101437.16;7375593;19;20014;-74
2022/08/04 08:35:53;;;;;;;6.40;2.65;;;;;;;25.58;77.18;101426.16;7375802;19;20487;-74
2022/08/04 08:38:40;;;;;;;6.53;2.70;;;;;;;25.49;76.74;101449.81;7373346;19;20018;-72
2022/08/04 08:41:37;;;;;;;6.72;3.05;;;;;;;25.85;75.91;101448.41;7376405;19;20017;-72
2022/08/04 08:44:29;;;;;;;9.30;3.30;;;;;;;25.89;74.97;101457.22;7376719;19;20474;-71
2022/08/04 08:47:30;;;;;;;5.32;2.90;;;;;;;25.53;76.63;101449.66;7374117;19;20487;-71
2022/08/04 08:50:34;;;;;;;5.45;2.83;;;;;;;25.51;75.85;101448.84;7376811;19;21119;-72
2022/08/04 08:53:26;;;;;;;6.32;2.67;;;;;;;25.67;74.57;101441.94;7363467;19;20006;-72
2022/08/04 08:56:13;;;;;;;6.60;3.05;;;;;;;25.93;73.51;101440.03;7372248;19;20011;-72
2022/08/04 08:59:22;;;;;;;4.40;2.42;;;;;;;25.56;68.67;101441.47;7371274;19;20015;-72
2022/08/04 09:02:16;;;;;;;6.60;3.00;;;;;;;25.57;70.28;101443.22;7374971;19;20039;-72
2022/08/04 09:05:06;;;;;;;5.88;2.88;;;;;;;25.44;72.14;101441.94;7371073;19;20557;-72
2022/08/04 09:08:07;;;;;;;7.97;2.88;;;;;;;25.71;70.77;101450.75;7370547;19;20844;-74
2022/08/04 09:10:46;;;;;;;7.80;2.90;;;;;;;25.63;70.35;101455.53;7367918;19;20063;-72
2022/08/04 09:13:25;;;;;;;5.82;2.90;;;;;;;25.53;69.90;101456.81;7375906;19;20007;-72
2022/08/04 09:16:04;;;;;;;5.72;2.80;;;;;;;25.16;71.30;101458.22;7368976;19;20014;-71
2022/08/04 09:18:43;;;;;;;7.00;2.97;;;;;;;25.24;70.81;101463.31;7369576;19;20014;-71
2022/08/04 09:21:20;;;;;;;5.80;2.80;;;;;;;25.27;70.58;101457.81;7377746;19;20104;-71
2022/08/04 09:23:57;;;;;;;9.20;2.92;;;;;;;25.14;71.61;101457.41;7375422;19;20333;-72
2022/08/04 09:26:43;;;;;;;7.95;2.95;;;;;;;25.17;72.40;101462.66;7375509;19;20043;-72
2022/08/04 09:29:22;;;;;;;4.95;2.45;;;;;;;25.30;72.50;101465.75;7377490;19;20667;-73
2022/08/04 09:32:06;;;;;;;5.32;2.83;;;;;;;25.04;73.56;101478.34;7374057;19;20015;-72
2022/08/04 09:34:53;;;;;;;4.70;2.50;;;;;;;25.10;73.97;101480.81;7375815;19;20038;-73
2022/08/04 09:37:44;;;;;;;7.35;2.83;;;;;;;25.17;74.49;101494.00;7372866;19;20018;-72
2022/08/04 09:40:22;;;;;;;5.30;2.63;;;;;;;24.94;75.34;101484.97;7373201;19;20508;-71
2022/08/04 09:43:11;;;;;;;5.63;2.75;;;;;;;24.93;75.46;101491.28;7374448;19;20007;-72
2022/08/04 09:45:52;;;;;;;7.30;2.78;;;;;;;24.93;73.87;101488.59;7376478;19;20463;-72
2022/08/04 09:48:44;;;;;;;4.18;2.80;;;;;;;24.77;75.46;101488.25;7379161;19;20010;-73
2022/08/04 09:51:25;;;;;;;5.43;2.65;;;;;;;24.88;75.69;101485.19;7375755;19;20017;-72
2022/08/04 09:54:28;;;;;;;4.53;2.53;;;;;;;24.78;75.88;101498.06;7360792;19;20660;-72
2022/08/04 09:57:09;;;;;;;6.65;2.65;;;;;;;25.00;75.15;101498.19;7372746;19;20325;-72
2022/08/04 09:59:46;;;;;;;4.20;2.50;;;;;;;25.09;75.29;101505.91;7376319;19;20018;-73
2022/08/04 10:02:20;;;;;;;5.30;2.88;;;;;;;24.96;74.80;101512.63;7377020;19;20086;-72
2022/08/04 10:04:56;;;;;;;7.32;2.78;;;;;;;24.93;75.34;101526.16;7374210;19;20003;-72
2022/08/04 10:07:50;;;;;;;7.20;2.63;;;;;;;25.20;74.69;101505.50;7375367;19;20044;-71
2022/08/04 10:10:48;;;;;;;5.07;2.80;;;;;;;25.04;72.89;101499.81;7371487;19;20415;-74
2022/08/04 10:13:41;;;;;;;7.75;2.60;;;;;;;24.89;73.18;101507.53;7383040;19;20011;-74
2022/08/04 10:16:26;;;;;;;4.90;2.50;;;;;;;24.99;73.13;101504.47;7382345;19;20021;-71
2022/08/04 10:19:04;;;;;;;4.47;2.50;;;;;;;25.21;72.57;101509.94;7377829;19;20014;-72
2022/08/04 10:21:52;;;;;;;5.18;2.40;;;;;;;25.24;73.05;101514.31;7376293;19;20010;-71
2022/08/04 10:24:57;;;;;;;6.10;2.50;;;;;;;25.66;71.50;101519.91;7373790;19;20014;-71
2022/08/04 10:27:32;;;;;;;5.78;2.55;;;;;;;25.41;71.58;101525.31;7372450;19;20011;-71
2022/08/04 10:30:10;;;;;;;6.50;3.10;;;;;;;25.40;71.53;101520.88;7371926;19;20052;-72
2022/08/04 10:32:51;;;;;;;7.00;2.63;;;;;;;25.37;72.56;101521.84;7372668;19;20262;-72
2022/08/04 10:35:25;;;;;;;6.15;2.38;;;;;;;26.07;71.64;101523.63;7374562;19;20380;-72
2022/08/04 10:38:03;;;;;;;7.00;2.97;;;;;;;26.05;69.29;101528.19;7379398;19;20011;-71
2022/08/04 10:40:45;;;;;;;6.07;2.60;;;;;;;26.25;68.51;101514.81;7374806;19;20017;-72
2022/08/04 10:43:27;;;;;;;8.18;3.00;;;;;;;26.15;66.62;101510.75;7378604;19;20279;-71
2022/08/04 10:46:01;;;;;;;5.18;2.58;;;;;;;25.74;68.38;101510.63;7378151;19;20025;-71
2022/08/04 10:48:41;;;;;;;7.40;2.95;;;;;;;25.72;67.29;101523.25;7375876;19;20044;-71
2022/08/04 10:51:23;;;;;;;4.38;2.53;;;;;;;25.86;69.61;101524.50;7381993;19;20010;-70
2022/08/04 10:54:01;;;;;;;5.05;2.65;;;;;;;26.07;66.58;101512.88;7373279;19;20010;-70
2022/08/04 10:56:36;;;;;;;7.05;2.67;;;;;;;26.36;64.45;101520.66;7377306;19;20015;-70
2022/08/04 10:59:13;;;;;;;5.40;2.70;;;;;;;26.58;64.42;101531.41;7376679;19;20293;-70
2022/08/04 11:01:50;;;;;;;9.75;2.70;;;;;;;26.75;63.27;101525.28;7376461;19;20018;-71
2022/08/04 11:04:43;;;;;;;4.57;2.90;;;;;;;26.79;60.91;101524.22;7375314;19;20044;-70
2022/08/04 11:07:16;;;;;;;8.50;3.05;;;;;;;27.52;58.79;101515.53;7375950;19;20014;-71
2022/08/04 11:09:50;;;;;;;7.50;3.13;;;;;;;27.08;60.54;101514.88;7373880;19;20039;-72
2022/08/04 11:12:26;;;;;;;8.32;3.08;;;;;;;27.41;62.62;101515.16;7376319;19;20014;-71
2022/08/04 11:15:01;;;;;;;7.43;2.75;;;;;;;27.36;61.04;101509.09;7377943;19;20082;-73
2022/08/04 11:17:35;;;;;;;5.32;2.92;;;;;;;27.76;59.74;101507.28;7375900;19;20017;-72
2022/08/04 11:20:14;;;;;;;6.38;3.17;;;;;;;28.45;58.93;101502.06;7380445;19;20014;-73
2022/08/04 11:23:09;;;;;;;8.15;2.95;;;;;;;28.01;57.82;101502.44;7380801;19;20279;-73
2022/08/04 11:25:52;;;;;;;7.07;3.10;;;;;;;27.93;59.40;101519.00;7368704;19;20114;-74
2022/08/04 11:28:35;;;;;;;7.05;3.05;;;;;;;28.56;61.02;101511.34;7375106;19;20336;-74
2022/08/04 11:31:08;;;;;;;5.75;2.65;;;;;;;28.48;57.86;101516.28;7380271;19;20010;-74
2022/08/04 11:33:46;;;;;;;6.90;2.58;;;;;;;28.15;57.63;101520.63;7371695;19;20052;-74
2022/08/04 11:36:26;;;;;;;6.88;3.10;;;;;;;28.30;57.35;101514.50;7378117;19;20010;-70
2022/08/04 11:39:05;;;;;;;4.40;2.70;;;;;;;28.99;57.94;101509.16;7375067;19;20024;-73
2022/08/04 11:41:49;;;;;;;7.50;2.95;;;;;;;28.52;56.54;101515.16;7373930;19;20416;-73
2022/08/04 11:44:28;;;;;;;5.93;2.75;;;;;;;28.87;55.38;101513.38;7374041;19;20058;-73
2022/08/04 11:47:02;;;;;;;6.07;2.47;;;;;;;28.39;57.76;101521.25;7374986;19;20014;-74
2022/08/04 11:49:37;;;;;;;7.38;2.80;;;;;;;28.83;55.79;101525.28;7378261;19;20011;-73
2022/08/04 11:52:29;;;;;;;4.32;2.80;;;;;;;28.84;53.60;101527.03;7370657;19;20534;-72
2022/08/04 11:55:01;;;;;;;5.18;2.33;;;;;;;28.99;53.26;101519.09;7376448;19;20006;-72
2022/08/04 11:57:34;;;;;;;4.55;2.55;;;;;;;28.54;55.34;101520.47;7372100;19;20665;-72
2022/08/04 12:00:11;;;;;;;4.35;2.58;;;;;;;28.69;53.73;101524.22;7375217;19;20564;-72
2022/08/04 12:03:16;;;;;;;5.97;2.92;;;;;;;29.00;52.72;101518.13;7378331;19;20019;-74
2022/08/04 12:05:54;;;;;;;6.57;2.70;;;;;;;28.89;53.01;101535.78;7375317;19;20011;-74
2022/08/04 12:08:51;;;;;;;4.18;2.30;;;;;;;28.56;52.53;101527.56;7375272;19;20026;-72
2022/08/04 12:11:31;;;;;;;6.38;2.47;;;;;;;28.65;52.43;101537.00;7373232;19;20015;-74
2022/08/04 12:14:14;;;;;;;6.25;2.67;;;;;;;28.89;52.02;101535.78;7371986;19;20351;-73
2022/08/04 12:16:57;;;;;;;4.63;2.30;;;;;;;29.19;52.38;101537.78;7375484;19;20007;-72
2022/08/04 12:19:33;;;;;;;6.00;2.35;;;;;;;29.40;52.75;101536.63;7373819;19;20050;-71
2022/08/04 12:22:26;;;;;;;5.93;2.47;;;;;;;29.47;50.39;101543.47;7372028;19;20010;-72
2022/08/04 12:25:04;;;;;;;4.57;2.47;;;;;;;28.49;53.07;101546.81;7368528;19;20010;-72
2022/08/04 12:27:38;;;;;;;4.93;2.20;;;;;;;28.55;53.41;101551.91;7376986;19;20006;-76
2022/08/04 12:30:14;;;;;;;7.57;2.50;;;;;;;28.82;53.49;101544.22;7372902;19;20066;-72